createdAt,value
2018-08-30T00:01:59.566Z,21.66
2018-08-30T00:04:27.860Z,21.60
2018-08-30T00:06:56.010Z,21.81
2018-08-30T00:09:24.583Z,21.74
2018-08-30T00:11:52.722Z,21.65
2018-08-30T00:14:21.441Z,21.51
2018-08-30T00:16:49.787Z,21.62
2018-08-30T00:19:18.555Z,21.57
2018-08-30T00:21:46.670Z,21.51
2018-08-30T00:24:14.969Z,21.58
2018-08-30T00:26:43.075Z,21.72
2018-08-30T00:29:11.172Z,21.58
2018-08-30T00:31:39.366Z,21.62
2018-08-30T00:34:07.482Z,21.43
2018-08-30T00:36:35.653Z,21.50
2018-08-30T00:39:03.922Z,21.33
2018-08-30T00:41:32.030Z,21.31
2018-08-30T00:44:00.323Z,21.07
2018-08-30T00:46:28.459Z,21.09
2018-08-30T00:48:56.594Z,21.03
2018-08-30T00:51:25.122Z,20.76
2018-08-30T00:53:53.282Z,20.69
2018-08-30T00:56:21.466Z,20.88
2018-08-30T00:58:49.632Z,20.80
2018-08-30T01:01:17.798Z,20.66
2018-08-30T01:03:45.902Z,20.71
2018-08-30T01:06:14.090Z,20.69
2018-08-30T01:08:42.370Z,20.63
2018-08-30T01:11:10.590Z,20.47
2018-08-30T01:13:38.671Z,20.40
2018-08-30T01:16:06.790Z,20.42
2018-08-30T01:18:35.039Z,20.41
2018-08-30T01:21:03.390Z,20.41
2018-08-30T01:23:31.513Z,20.49
2018-08-30T01:25:59.652Z,20.43
2018-08-30T01:28:27.841Z,20.22
2018-08-30T01:30:55.949Z,20.34
2018-08-30T01:33:24.162Z,20.19
2018-08-30T01:35:53.019Z,20.18
2018-08-30T01:38:21.534Z,20.48
2018-08-30T01:40:50.124Z,20.25
2018-08-30T01:43:18.271Z,20.20
2018-08-30T01:45:46.364Z,20.12
2018-08-30T01:48:14.729Z,20.16
2018-08-30T01:50:42.878Z,20.20
2018-08-30T01:53:11.079Z,20.31
2018-08-30T01:55:39.215Z,20.04
2018-08-30T01:58:07.417Z,20.10
2018-08-30T02:00:35.723Z,20.12
2018-08-30T02:03:03.959Z,20.09
2018-08-30T02:05:32.108Z,19.87
2018-08-30T02:08:00.830Z,19.96
2018-08-30T02:10:29.111Z,20.22
2018-08-30T02:12:58.090Z,19.86
2018-08-30T02:15:26.415Z,19.81
2018-08-30T02:17:55.152Z,19.84
2018-08-30T02:20:23.591Z,19.81
2018-08-30T02:22:51.691Z,19.85
2018-08-30T02:25:20.023Z,20.11
2018-08-30T02:27:48.163Z,19.85
2018-08-30T02:30:16.277Z,19.78
2018-08-30T02:32:44.399Z,19.43
2018-08-30T02:35:12.539Z,19.50
2018-08-30T02:37:40.682Z,19.60
2018-08-30T02:40:09.138Z,19.62
2018-08-30T02:42:37.266Z,19.76
2018-08-30T02:45:05.717Z,19.70
2018-08-30T02:47:34.209Z,19.46
2018-08-30T02:50:02.547Z,19.82
2018-08-30T02:52:30.744Z,19.69
2018-08-30T02:54:59.195Z,19.69
2018-08-30T02:57:27.312Z,19.55
2018-08-30T02:59:56.908Z,19.57
2018-08-30T03:02:25.527Z,19.54
2018-08-30T03:04:53.783Z,19.77
2018-08-30T03:07:21.918Z,19.61
2018-08-30T03:09:50.078Z,19.64
2018-08-30T03:12:18.218Z,19.77
2018-08-30T03:14:56.438Z,19.38
2018-08-30T03:17:24.595Z,19.51
2018-08-30T03:19:54.288Z,19.69
2018-08-30T03:27:20.680Z,19.78
2018-08-30T03:29:49.077Z,19.75
2018-08-30T03:32:17.210Z,19.66
2018-08-30T03:34:45.542Z,19.68
2018-08-30T03:37:15.229Z,19.86
2018-08-30T03:39:43.307Z,19.58
2018-08-30T03:42:11.439Z,19.47
2018-08-30T03:44:39.648Z,19.46
2018-08-30T03:47:08.702Z,19.48
2018-08-30T03:49:37.225Z,19.61
2018-08-30T03:52:17.885Z,19.66
2018-08-30T03:54:52.447Z,19.27
2018-08-30T03:57:20.629Z,19.34
2018-08-30T03:59:48.768Z,19.50
2018-08-30T04:02:16.956Z,19.13
2018-08-30T04:04:45.119Z,19.41
2018-08-30T04:07:13.233Z,19.46
2018-08-30T04:09:41.540Z,19.44
2018-08-30T04:12:09.658Z,19.32
2018-08-30T04:14:38.550Z,19.41
2018-08-30T04:17:07.391Z,19.46
2018-08-30T04:19:35.562Z,19.42
2018-08-30T04:22:03.768Z,19.54
2018-08-30T04:24:31.943Z,19.53
2018-08-30T04:27:01.078Z,19.42
2018-08-30T04:29:29.219Z,19.40
2018-08-30T04:31:57.329Z,19.40
2018-08-30T04:34:25.619Z,19.36
2018-08-30T04:36:53.687Z,19.31
2018-08-30T04:39:21.771Z,19.28
2018-08-30T04:41:49.860Z,19.30
2018-08-30T04:44:18.173Z,19.28
2018-08-30T04:46:46.532Z,19.45
2018-08-30T04:49:14.778Z,19.31
2018-08-30T04:51:42.935Z,19.38
2018-08-30T04:54:11.095Z,19.38
2018-08-30T04:56:39.247Z,19.51
2018-08-30T04:59:07.393Z,19.33
2018-08-30T05:01:35.562Z,19.49
2018-08-30T05:04:03.672Z,19.40
2018-08-30T05:06:31.819Z,19.41
2018-08-30T05:09:00.046Z,19.30
2018-08-30T05:11:28.123Z,19.39
2018-08-30T05:13:56.279Z,19.53
2018-08-30T05:16:25.328Z,19.48
2018-08-30T05:18:54.179Z,19.35
2018-08-30T05:21:22.625Z,19.45
2018-08-30T05:23:50.671Z,19.59
2018-08-30T05:26:18.758Z,19.61
2018-08-30T05:28:46.853Z,19.60
2018-08-30T05:31:15.008Z,19.67
2018-08-30T05:33:43.103Z,19.43
2018-08-30T05:36:11.164Z,19.58
2018-08-30T05:38:40.381Z,19.51
2018-08-30T05:41:08.462Z,19.46
2018-08-30T05:43:36.717Z,19.59
2018-08-30T05:46:04.813Z,19.45
2018-08-30T05:48:32.919Z,19.11
2018-08-30T05:51:01.343Z,19.25
2018-08-30T05:53:29.581Z,19.49
2018-08-30T05:55:57.796Z,19.32
2018-08-30T05:58:26.000Z,19.70
2018-08-30T06:00:54.207Z,19.70
2018-08-30T06:03:22.295Z,19.66
2018-08-30T06:05:50.489Z,19.28
2018-08-30T06:08:18.632Z,19.44
2018-08-30T06:10:46.728Z,19.57
2018-08-30T06:13:14.808Z,19.36
2018-08-30T06:15:43.003Z,19.44
2018-08-30T06:18:11.106Z,19.46
2018-08-30T06:20:39.243Z,19.37
2018-08-30T06:23:07.507Z,19.44
2018-08-30T06:25:36.205Z,19.44
2018-08-30T06:28:04.466Z,19.49
2018-08-30T06:30:33.264Z,19.47
2018-08-30T06:33:01.614Z,19.29
2018-08-30T06:35:29.919Z,19.63
2018-08-30T06:37:58.056Z,19.44
2018-08-30T06:40:26.615Z,19.31
2018-08-30T06:42:54.695Z,19.52
2018-08-30T06:45:22.833Z,19.56
2018-08-30T06:47:51.323Z,19.80
2018-08-30T06:50:19.427Z,19.98
2018-08-30T06:52:47.765Z,19.95
2018-08-30T06:55:15.845Z,20.04
2018-08-30T06:57:44.092Z,19.89
2018-08-30T07:00:12.321Z,20.21
2018-08-30T07:02:40.463Z,20.33
2018-08-30T07:05:08.558Z,20.33
2018-08-30T07:07:36.707Z,20.24
2018-08-30T07:10:05.179Z,20.24
2018-08-30T07:12:33.454Z,20.21
2018-08-30T07:15:01.741Z,20.03
2018-08-30T07:17:29.903Z,19.81
2018-08-30T07:19:58.062Z,19.95
2018-08-30T07:22:26.287Z,20.20
2018-08-30T07:24:54.590Z,19.90
2018-08-30T07:27:22.735Z,19.68
2018-08-30T07:29:50.850Z,19.56
2018-08-30T07:32:19.034Z,19.73
2018-08-30T07:34:47.267Z,19.67
2018-08-30T07:37:15.320Z,19.82
2018-08-30T07:39:43.386Z,19.66
2018-08-30T07:42:11.499Z,19.61
2018-08-30T07:44:39.699Z,19.88
2018-08-30T07:47:07.764Z,20.05
2018-08-30T07:49:35.872Z,19.88
2018-08-30T07:52:04.023Z,19.98
2018-08-30T07:54:32.202Z,19.99
2018-08-30T07:57:00.338Z,19.91
2018-08-30T07:59:28.504Z,20.06
2018-08-30T08:01:56.631Z,19.89
2018-08-30T08:04:24.786Z,19.76
2018-08-30T08:06:52.877Z,19.60
2018-08-30T08:09:21.030Z,19.69
2018-08-30T08:11:49.130Z,19.69
2018-08-30T08:14:17.627Z,19.61
2018-08-30T08:16:45.695Z,19.56
2018-08-30T08:19:13.912Z,19.79
2018-08-30T08:21:41.995Z,19.97
2018-08-30T08:24:10.113Z,19.66
2018-08-30T08:26:38.220Z,19.85
2018-08-30T08:29:07.109Z,19.95
2018-08-30T08:31:35.212Z,19.81
2018-08-30T08:34:03.428Z,19.67
2018-08-30T08:36:31.629Z,19.62
2018-08-30T08:38:59.810Z,19.78
2018-08-30T08:41:27.983Z,19.89
2018-08-30T08:43:56.082Z,20.07
2018-08-30T08:46:24.995Z,20.28
2018-08-30T08:48:53.116Z,20.24
2018-08-30T08:51:21.223Z,20.38
2018-08-30T08:53:49.364Z,20.02
2018-08-30T08:56:17.397Z,20.66
2018-08-30T08:58:45.662Z,21.07
2018-08-30T09:01:13.736Z,20.98
2018-08-30T09:03:41.930Z,21.35
2018-08-30T09:06:10.088Z,21.11
2018-08-30T09:08:38.246Z,21.07
2018-08-30T09:11:06.373Z,21.12
2018-08-30T09:13:34.592Z,21.27
2018-08-30T09:16:03.362Z,21.41
2018-08-30T09:18:31.582Z,21.08
2018-08-30T09:20:59.653Z,21.08
2018-08-30T09:23:27.815Z,20.94
2018-08-30T09:25:55.935Z,21.17
2018-08-30T09:28:26.164Z,20.97
2018-08-30T09:30:55.156Z,20.93
2018-08-30T09:33:23.201Z,21.33
2018-08-30T09:35:51.304Z,21.32
2018-08-30T09:38:19.387Z,21.54
2018-08-30T09:40:47.468Z,21.64
2018-08-30T09:43:15.596Z,21.47
2018-08-30T09:45:43.699Z,21.10
2018-08-30T09:48:11.775Z,20.96
2018-08-30T09:50:40.463Z,21.09
2018-08-30T09:53:08.611Z,21.22
2018-08-30T09:55:36.819Z,21.29
2018-08-30T09:58:05.055Z,21.50
2018-08-30T10:00:38.440Z,21.31
2018-08-30T10:03:06.852Z,21.49
2018-08-30T10:05:34.975Z,21.45
2018-08-30T10:08:10.053Z,21.67
2018-08-30T10:10:38.371Z,21.62
2018-08-30T10:13:06.834Z,22.42
2018-08-30T10:15:35.295Z,23.08
2018-08-30T10:18:03.437Z,22.78
2018-08-30T10:20:31.504Z,22.94
2018-08-30T10:22:59.692Z,23.55
2018-08-30T10:25:27.986Z,23.44
2018-08-30T10:27:55.972Z,23.68
2018-08-30T10:30:24.063Z,22.67
2018-08-30T10:32:52.166Z,23.07
2018-08-30T10:35:20.296Z,23.19
2018-08-30T10:37:48.643Z,23.53
2018-08-30T10:40:16.718Z,23.39
2018-08-30T10:42:44.936Z,22.47
2018-08-30T10:45:13.014Z,22.18
2018-08-30T10:47:41.135Z,22.32
2018-08-30T10:50:09.278Z,22.65
2018-08-30T10:52:37.395Z,23.06
2018-08-30T10:55:05.571Z,23.01
2018-08-30T10:57:33.690Z,23.74
2018-08-30T11:00:01.831Z,24.30
2018-08-30T11:02:29.996Z,25.41
2018-08-30T11:04:58.584Z,24.18
2018-08-30T11:07:26.886Z,24.33
2018-08-30T11:09:55.644Z,25.29
2018-08-30T11:12:23.737Z,24.58
2018-08-30T11:14:51.900Z,25.36
2018-08-30T11:17:20.003Z,25.62
2018-08-30T11:19:48.143Z,25.25
2018-08-30T11:22:16.284Z,25.03
2018-08-30T11:24:44.517Z,24.54
2018-08-30T11:27:12.812Z,24.68
2018-08-30T11:29:40.955Z,24.87
2018-08-30T11:32:09.151Z,24.94
2018-08-30T11:34:37.284Z,26.56
2018-08-30T11:37:05.960Z,25.84
2018-08-30T11:39:34.195Z,26.37
2018-08-30T11:42:02.362Z,24.88
2018-08-30T11:44:30.482Z,24.06
2018-08-30T11:46:58.778Z,23.80
2018-08-30T11:49:26.947Z,23.77
2018-08-30T11:51:55.829Z,23.55
2018-08-30T11:54:24.009Z,23.19
2018-08-30T11:56:52.218Z,23.24
2018-08-30T11:59:20.311Z,23.69
2018-08-30T12:01:48.434Z,24.60
2018-08-30T12:04:17.460Z,26.05
2018-08-30T12:06:45.583Z,26.09
2018-08-30T12:09:14.308Z,28.25
2018-08-30T12:11:42.549Z,28.73
2018-08-30T12:14:10.664Z,28.25
2018-08-30T12:16:38.989Z,29.55
2018-08-30T12:19:07.165Z,28.47
2018-08-30T12:21:35.304Z,27.65
2018-08-30T12:24:03.415Z,27.29
2018-08-30T12:26:31.604Z,26.40
2018-08-30T12:28:59.819Z,26.15
2018-08-30T12:31:27.894Z,25.95
2018-08-30T12:33:57.311Z,25.30
2018-08-30T12:36:26.179Z,25.02
2018-08-30T12:38:54.419Z,25.08
2018-08-30T12:41:22.593Z,25.12
2018-08-30T12:43:50.800Z,24.83
2018-08-30T12:46:18.728Z,26.07
2018-08-30T12:48:46.890Z,31.08
2018-08-30T12:51:15.501Z,32.75
2018-08-30T12:53:43.459Z,32.54
2018-08-30T12:56:12.130Z,30.95
2018-08-30T12:58:40.101Z,27.88
2018-08-30T13:01:08.250Z,28.07
2018-08-30T13:03:36.526Z,27.54
2018-08-30T13:06:04.951Z,30.27
2018-08-30T13:08:33.066Z,27.63
2018-08-30T13:11:01.170Z,27.69
2018-08-30T13:13:29.148Z,28.73
2018-08-30T13:15:57.353Z,29.92
2018-08-30T13:18:26.570Z,26.64
2018-08-30T13:20:54.903Z,26.14
2018-08-30T13:23:23.005Z,26.43
2018-08-30T13:25:51.276Z,30.32
2018-08-30T13:28:19.381Z,29.15
2018-08-30T13:30:47.375Z,33.29
2018-08-30T13:33:19.909Z,35.67
2018-08-30T13:35:43.620Z,36.56
2018-08-30T13:38:11.891Z,36.89
2018-08-30T13:40:40.198Z,37.47
2018-08-30T13:43:08.070Z,39.54
2018-08-30T13:45:36.272Z,40.48
2018-08-30T13:48:04.434Z,41.04
2018-08-30T13:50:32.649Z,37.09
2018-08-30T13:53:01.206Z,37.36
2018-08-30T13:55:29.249Z,39.39
2018-08-30T13:57:57.735Z,40.42
2018-08-30T14:00:27.179Z,41.31
2018-08-30T14:02:55.048Z,36.06
2018-08-30T14:05:23.212Z,33.16
2018-08-30T14:07:51.502Z,33.11
2018-08-30T14:10:19.785Z,35.12
2018-08-30T14:12:47.621Z,35.76
2018-08-30T14:15:15.939Z,37.25
2018-08-30T14:17:44.261Z,36.80
2018-08-30T14:20:12.384Z,39.18
2018-08-30T14:22:40.752Z,33.98
2018-08-30T14:25:08.766Z,31.34
2018-08-30T14:27:37.052Z,29.98
2018-08-30T14:30:05.165Z,29.03
2018-08-30T14:32:33.263Z,30.04
2018-08-30T14:35:01.444Z,29.24
2018-08-30T14:37:29.575Z,28.36
2018-08-30T14:39:57.783Z,28.85
2018-08-30T14:42:26.507Z,28.37
2018-08-30T14:44:54.599Z,27.67
2018-08-30T14:47:23.085Z,27.48
2018-08-30T14:49:51.279Z,28.09
2018-08-30T14:52:19.601Z,28.18
2018-08-30T14:54:47.752Z,27.86
2018-08-30T14:57:16.187Z,27.66
2018-08-30T14:59:44.333Z,27.58
2018-08-30T15:02:12.490Z,27.14
2018-08-30T15:04:40.604Z,26.40
2018-08-30T15:07:08.728Z,26.22
2018-08-30T15:09:36.794Z,26.37
2018-08-30T15:12:04.908Z,26.65
2018-08-30T15:14:33.082Z,28.50
2018-08-30T15:17:01.556Z,32.68
2018-08-30T15:19:29.448Z,31.05
2018-08-30T15:21:57.568Z,35.35
2018-08-30T15:29:18.348Z,30.89
2018-08-30T15:31:46.535Z,35.43
2018-08-30T15:34:14.656Z,35.99
2018-08-30T15:36:42.929Z,36.01
2018-08-30T15:39:11.644Z,32.86
2018-08-30T15:41:39.897Z,36.27
2018-08-30T15:44:08.119Z,34.75
2018-08-30T15:46:36.300Z,32.13
2018-08-30T15:49:04.654Z,29.09
2018-08-30T15:51:32.885Z,28.43
2018-08-30T15:54:01.265Z,28.45
2018-08-30T15:56:29.315Z,30.65
2018-08-30T15:58:57.422Z,28.91
2018-08-30T16:01:25.547Z,29.72
2018-08-30T16:03:53.672Z,30.70
2018-08-30T16:06:21.787Z,31.28
2018-08-30T16:08:49.899Z,29.32
2018-08-30T16:11:18.151Z,28.86
2018-08-30T16:13:46.199Z,28.18
2018-08-30T16:16:14.541Z,30.80
2018-08-30T16:18:42.702Z,29.34
2018-08-30T16:21:10.815Z,29.28
2018-08-30T16:23:39.057Z,27.92
2018-08-30T16:26:07.363Z,27.04
2018-08-30T16:28:36.153Z,26.50
2018-08-30T16:31:04.268Z,26.07
2018-08-30T16:33:32.359Z,26.22
2018-08-30T16:36:00.458Z,25.95
2018-08-30T16:38:28.585Z,26.17
2018-08-30T16:40:57.127Z,25.77
2018-08-30T16:43:25.387Z,25.84
2018-08-30T16:45:53.519Z,25.72
2018-08-30T16:48:21.633Z,25.08
2018-08-30T16:50:49.705Z,25.03
2018-08-30T16:53:17.952Z,24.83
2018-08-30T16:55:46.023Z,24.80
2018-08-30T16:58:14.327Z,24.75
2018-08-30T17:00:42.471Z,24.68
2018-08-30T17:03:10.933Z,24.97
2018-08-30T17:05:39.127Z,24.66
2018-08-30T17:08:07.300Z,24.36
2018-08-30T17:10:35.457Z,24.47
2018-08-30T17:13:03.507Z,24.49
2018-08-30T17:15:31.727Z,24.44
2018-08-30T17:17:59.909Z,24.59
2018-08-30T17:20:46.660Z,24.55
2018-08-30T17:23:14.839Z,24.31
2018-08-30T17:25:43.520Z,24.22
2018-08-30T17:28:12.124Z,24.49
2018-08-30T17:31:00.769Z,24.39
2018-08-30T17:33:50.858Z,24.76
2018-08-30T17:36:19.601Z,24.57
2018-08-30T17:38:47.818Z,24.56
2018-08-30T17:41:15.894Z,24.28
2018-08-30T17:43:44.015Z,24.43
2018-08-30T17:46:12.223Z,24.24
2018-08-30T17:48:40.435Z,24.27
2018-08-30T17:51:08.595Z,24.21
2018-08-30T17:53:36.703Z,24.37
2018-08-30T17:56:04.974Z,23.98
2018-08-30T17:58:33.045Z,24.06
2018-08-30T18:01:01.247Z,23.75
2018-08-30T18:03:29.466Z,23.72
2018-08-30T18:05:57.619Z,23.74
2018-08-30T18:08:25.841Z,23.66
2018-08-30T18:10:54.018Z,23.50
2018-08-30T18:13:22.602Z,23.39
2018-08-30T18:15:50.784Z,23.72
2018-08-30T18:18:18.938Z,23.51
2018-08-30T18:20:47.067Z,23.52
2018-08-30T18:23:15.168Z,23.43
2018-08-30T18:25:43.343Z,23.24
2018-08-30T18:28:11.720Z,23.44
2018-08-30T18:30:39.815Z,23.22
2018-08-30T18:33:07.942Z,23.14
2018-08-30T18:35:36.037Z,23.18
2018-08-30T18:38:04.168Z,23.23
2018-08-30T18:40:32.399Z,23.12
2018-08-30T18:43:00.471Z,23.09
2018-08-30T18:45:28.649Z,23.14
2018-08-30T18:47:57.641Z,22.96
2018-08-30T18:50:26.037Z,22.84
2018-08-30T18:52:54.116Z,22.94
2018-08-30T18:55:22.403Z,22.94
2018-08-30T18:57:50.623Z,22.45
2018-08-30T19:00:18.804Z,22.67
2018-08-30T19:02:49.164Z,22.51
2018-08-30T19:05:17.275Z,22.27
2018-08-30T19:07:45.379Z,22.23
2018-08-30T19:10:14.877Z,22.29
2018-08-30T19:12:44.161Z,22.32
2018-08-30T19:15:17.560Z,22.24
2018-08-30T19:17:51.148Z,22.15
2018-08-30T19:20:19.257Z,22.13
2018-08-30T19:22:47.352Z,21.97
2018-08-30T19:25:19.708Z,22.15
2018-08-30T19:27:47.939Z,22.05
2018-08-30T19:30:21.350Z,21.96
2018-08-30T19:32:49.528Z,21.99
2018-08-30T19:35:23.008Z,21.93
2018-08-30T19:37:51.383Z,22.10
2018-08-30T19:40:25.012Z,22.09
2018-08-30T19:42:53.174Z,21.87
2018-08-30T19:45:21.393Z,21.94
2018-08-30T19:47:49.509Z,21.94
2018-08-30T19:50:17.611Z,21.91
2018-08-30T19:52:46.926Z,21.89
2018-08-30T19:55:15.083Z,21.96
2018-08-30T19:57:43.364Z,21.87
2018-08-30T20:00:11.589Z,21.90
2018-08-30T20:02:40.013Z,21.96
2018-08-30T20:05:08.873Z,22.11
2018-08-30T20:07:37.472Z,22.06
2018-08-30T20:10:06.338Z,21.98
2018-08-30T20:12:34.552Z,21.92
2018-08-30T20:15:05.289Z,21.77
2018-08-30T20:17:33.514Z,21.84
2018-08-30T20:20:01.649Z,21.99
2018-08-30T20:22:30.058Z,21.84
2018-08-30T20:24:58.754Z,21.85
2018-08-30T20:27:27.123Z,21.87
2018-08-30T20:29:55.828Z,21.86
2018-08-30T20:32:24.184Z,21.63
2018-08-30T20:34:52.369Z,21.58
2018-08-30T20:37:20.605Z,21.51
2018-08-30T20:39:48.888Z,21.45
2018-08-30T20:42:17.185Z,21.45
2018-08-30T20:44:45.484Z,21.50
2018-08-30T20:47:13.670Z,21.50
2018-08-30T20:49:41.872Z,21.40
2018-08-30T20:52:10.147Z,21.31
2018-08-30T20:54:38.365Z,21.36
2018-08-30T20:57:06.646Z,21.32
2018-08-30T20:59:34.720Z,21.30
2018-08-30T21:02:02.933Z,21.23
2018-08-30T21:04:30.964Z,21.25
2018-08-30T21:07:01.312Z,21.24
2018-08-30T21:09:29.512Z,21.24
2018-08-30T21:11:58.480Z,21.09
2018-08-30T21:14:26.596Z,21.07
2018-08-30T21:16:56.781Z,21.05
2018-08-30T21:19:25.134Z,20.89
2018-08-30T21:21:53.686Z,20.74
2018-08-30T21:24:22.003Z,20.65
2018-08-30T21:26:50.229Z,20.92
2018-08-30T21:29:18.468Z,20.87
2018-08-30T21:31:46.706Z,20.72
2018-08-30T21:34:15.878Z,20.67
2018-08-30T21:36:44.035Z,20.79
2018-08-30T21:39:12.247Z,20.73
2018-08-30T21:41:40.380Z,20.65
2018-08-30T21:44:08.517Z,20.76
2018-08-30T21:46:36.684Z,20.74
2018-08-30T21:49:04.790Z,20.76
2018-08-30T21:51:32.874Z,20.62
2018-08-30T21:54:01.118Z,20.78
2018-08-30T21:56:29.235Z,20.61
2018-08-30T21:58:58.676Z,20.55
2018-08-30T22:01:26.842Z,20.62
2018-08-30T22:03:55.116Z,20.58
2018-08-30T22:06:23.231Z,20.52
2018-08-30T22:08:51.496Z,20.39
2018-08-30T22:11:19.984Z,20.51
2018-08-30T22:13:48.101Z,20.52
2018-08-30T22:16:16.205Z,20.64
2018-08-30T22:18:44.658Z,20.38
2018-08-30T22:21:12.951Z,20.25
2018-08-30T22:23:41.140Z,20.32
2018-08-30T22:26:09.501Z,20.30
2018-08-30T22:28:37.624Z,20.36
2018-08-30T22:31:05.927Z,20.46
2018-08-30T22:33:34.056Z,20.47
2018-08-30T22:36:02.128Z,20.44
2018-08-30T22:38:30.255Z,20.34
2018-08-30T22:40:58.819Z,20.42
2018-08-30T22:43:26.937Z,20.33
2018-08-30T22:45:55.040Z,20.27
2018-08-30T22:48:23.122Z,20.32
2018-08-30T22:50:51.239Z,20.33
2018-08-30T22:53:19.420Z,20.39
2018-08-30T22:55:47.547Z,20.23
2018-08-30T22:58:15.668Z,20.16
2018-08-30T23:00:44.020Z,20.28
2018-08-30T23:03:12.152Z,20.14
2018-08-30T23:05:42.482Z,20.03
2018-08-30T23:08:10.580Z,20.20
2018-08-30T23:10:38.699Z,20.00
2018-08-30T23:13:07.156Z,20.03
2018-08-30T23:15:35.270Z,19.88
2018-08-30T23:18:03.407Z,19.98
2018-08-30T23:20:31.540Z,20.08
2018-08-30T23:22:59.712Z,20.14
2018-08-30T23:25:28.858Z,20.14
2018-08-30T23:27:57.010Z,20.09
2018-08-30T23:30:25.146Z,20.02
2018-08-30T23:32:53.243Z,19.98
2018-08-30T23:35:21.372Z,19.97
2018-08-30T23:37:49.481Z,19.85
2018-08-30T23:40:17.567Z,19.98
2018-08-30T23:42:45.764Z,19.80
2018-08-30T23:45:13.932Z,19.86
2018-08-30T23:47:42.069Z,19.88
2018-08-30T23:50:10.212Z,19.82
2018-08-30T23:52:38.432Z,19.75
2018-08-30T23:55:06.696Z,19.72
2018-08-30T23:57:34.842Z,19.80
